Time;durP1;ratioP1;P1;durP2;ratioP2;P2;SDS_P1;SDS_P2;PMS_P1;PMS_P2;Temp;Humidity;BMP_temperature;BMP_pressure;BME280_temperature;BME280_humidity;BME280_pressure;Samples;Min_cycle;Max_cycle;Signal;HPM_P1;HPM_P2
2021/03/10 06:57:43;;;;;;;11.57;9.88;;;;;;;;;;10594186;27;20479;-84
2021/03/10 07:02:44;;;;;;;13.05;9.85;;;;;;;;;;10613299;28;20039;-84
2021/03/10 07:07:44;;;;;;;;;;;;;;;;;;10599838;28;20087;-84
2021/03/10 07:12:45;;;;;;;13.32;11.50;;;;;;;;;;10596054;28;19908;-85
2021/03/10 07:17:46;;;;;;;6.97;6.07;;;;;;;;;;10591928;28;20055;-85
2021/03/10 07:22:57;;;;;;;14.02;12.55;;;;;;;;;;10590161;28;20027;-83
2021/03/10 07:28:06;;;;;;;8.40;7.22;;;;;;;;;;10590687;28;20438;-84
2021/03/10 07:33:14;;;;;;;6.45;5.85;;;;;;;;;;10587626;28;20093;-84
2021/03/10 07:38:15;;;;;;;6.60;6.00;;;;;;;;;;10585895;28;20115;-84
2021/03/10 07:43:16;;;;;;;10.02;8.73;;;;;;;;;;10584086;28;20059;-84
2021/03/10 07:48:17;;;;;;;6.90;6.30;;;;;;;;;;10586749;28;20496;-84
2021/03/10 07:53:18;;;;;;;7.18;6.47;;;;;;;;;;10582634;28;20028;-82
2021/03/10 07:58:26;;;;;;;7.82;7.03;;;;;;;;;;10613144;28;20099;-83
2021/03/10 08:03:31;;;;;;;6.38;5.78;;;;;;;;;;10611999;28;20035;-84
2021/03/10 08:08:45;;;;;;;5.15;4.07;;;;;;;;;;10564303;28;20477;-84
2021/03/10 08:13:47;;;;;;;8.18;6.50;;;;;;;;;;10553832;28;20024;-86
2021/03/10 08:18:53;;;;;;;10.10;7.78;;;;;;;;;;10541745;28;20032;-84
2021/03/10 08:23:58;;;;;;;8.38;7.57;;;;;;;;;;10562370;28;20024;-85
2021/03/10 08:29:03;;;;;;;8.25;7.43;;;;;;;;;;10561654;28;20039;-84
2021/03/10 08:34:04;;;;;;;7.78;7.00;;;;;;;;;;10561475;28;20016;-84
2021/03/10 08:39:15;;;;;;;8.65;7.78;;;;;;;;;;10558801;28;20020;-86
2021/03/10 08:44:22;;;;;;;13.77;12.48;;;;;;;;;;10556959;28;20024;-87
2021/03/10 08:49:34;;;;;;;10.60;9.57;;;;;;;;;;10556360;28;20039;-87
2021/03/10 08:54:57;;;;;;;14.48;12.98;;;;;;;;;;10560041;28;20054;-86
2021/03/10 09:11:47;;;;;;;14.45;13.02;;;;;;;;;;10555007;28;20012;-87
2021/03/10 09:28:55;;;;;;;17.17;15.40;;;;;;;;;;10381647;28;20053;-86
2021/03/10 09:34:33;;;;;;;14.18;12.70;;;;;;;;;;10369468;28;20531;-87
2021/03/10 10:02:34;;;;;;;21.02;18.83;;;;;;;;;;10662805;27;20027;-86
2021/03/10 10:07:38;;;;;;;18.00;16.10;;;;;;;;;;10657013;27;20039;-85
2021/03/10 10:12:43;;;;;;;17.15;15.15;;;;;;;;;;10606889;27;20035;-85
2021/03/10 10:17:45;;;;;;;12.07;10.15;;;;;;;;;;10608589;27;20050;-83
2021/03/10 10:22:46;;;;;;;21.40;19.15;;;;;;;;;;10621569;27;20019;-83
2021/03/10 10:27:48;;;;;;;23.48;21.05;;;;;;;;;;10615485;27;20023;-82
2021/03/10 10:32:50;;;;;;;18.20;16.30;;;;;;;;;;10615761;27;20026;-83
2021/03/10 10:37:51;;;;;;;18.42;16.60;;;;;;;;;;10615457;27;20015;-83
2021/03/10 10:42:53;;;;;;;20.23;18.23;;;;;;;;;;10618430;27;20034;-84
2021/03/10 10:48:26;;;;;;;16.63;14.98;;;;;;;;;;10617086;27;20091;-84
2021/03/10 10:53:28;;;;;;;20.60;18.50;;;;;;;;;;10631632;27;20035;-84
2021/03/10 10:58:30;;;;;;;18.63;16.73;;;;;;;;;;10620438;28;20019;-85
2021/03/10 11:03:33;;;;;;;22.60;20.13;;;;;;;;;;10620798;28;20131;-82
2021/03/10 11:08:34;;;;;;;12.15;10.95;;;;;;;;;;10639538;28;20041;-84
2021/03/10 11:13:35;;;;;;;14.52;13.13;;;;;;;;;;10624551;28;20028;-86
2021/03/10 11:18:37;;;;;;;16.30;14.57;;;;;;;;;;10628979;28;20026;-84
2021/03/10 11:23:38;;;;;;;17.58;15.88;;;;;;;;;;10631560;28;20074;-84
2021/03/10 11:28:44;;;;;;;11.85;10.63;;;;;;;;;;10619285;28;20027;-84
2021/03/10 11:33:46;;;;;;;15.05;13.35;;;;;;;;;;10617208;28;20039;-84
2021/03/10 11:38:48;;;;;;;21.35;19.02;;;;;;;;;;10647237;28;20019;-83
2021/03/10 11:43:49;;;;;;;14.82;12.52;;;;;;;;;;10638086;27;20061;-87
2021/03/10 11:49:19;;;;;;;14.20;12.80;;;;;;;;;;10624812;27;20031;-84
2021/03/10 11:54:37;;;;;;;12.38;11.18;;;;;;;;;;10650730;27;20084;-85
2021/03/10 12:00:01;;;;;;;11.35;10.15;;;;;;;;;;10634100;27;20054;-84
2021/03/10 12:05:21;;;;;;;10.20;9.10;;;;;;;;;;10594654;27;20071;-84
2021/03/10 12:10:45;;;;;;;8.20;7.30;;;;;;;;;;10644795;27;20050;-84
2021/03/10 12:27:37;;;;;;;7.82;7.03;;;;;;;;;;10520874;28;20119;-85
2021/03/10 12:32:38;;;;;;;8.85;7.00;;;;;;;;;;10546764;28;20046;-84
2021/03/10 12:38:01;;;;;;;8.45;7.00;;;;;;;;;;10557809;28;20103;-84
2021/03/10 12:43:25;;;;;;;8.50;6.70;;;;;;;;;;10558823;28;20461;-86
2021/03/10 12:48:34;;;;;;;10.07;7.15;;;;;;;;;;10538968;28;20096;-87
2021/03/10 12:53:38;;;;;;;8.30;5.78;;;;;;;;;;10570025;28;20047;-84
2021/03/10 12:59:23;;;;;;;9.80;8.80;;;;;;;;;;10634755;27;20015;-83
2021/03/10 13:04:36;;;;;;;8.52;7.65;;;;;;;;;;10651837;27;20035;-87
2021/03/10 13:10:00;;;;;;;11.27;10.00;;;;;;;;;;10661825;27;20042;-86
2021/03/10 13:15:06;;;;;;;10.10;9.00;;;;;;;;;;10654757;27;20031;-85
2021/03/10 13:20:10;;;;;;;9.68;8.70;;;;;;;;;;10646891;27;20087;-82
2021/03/10 13:25:11;;;;;;;7.85;6.95;;;;;;;;;;10636502;27;20027;-82
2021/03/10 13:30:13;;;;;;;10.52;9.43;;;;;;;;;;10648273;27;20038;-84
2021/03/10 13:35:14;;;;;;;11.60;9.82;;;;;;;;;;10648894;27;20027;-85
2021/03/10 13:40:30;;;;;;;11.80;10.60;;;;;;;;;;10638316;27;20019;-81
2021/03/10 13:45:34;;;;;;;9.90;7.97;;;;;;;;;;10647572;27;20039;-84
2021/03/10 13:50:36;;;;;;;10.75;9.07;;;;;;;;;;10655627;27;20057;-83
2021/03/10 13:55:38;;;;;;;7.93;7.13;;;;;;;;;;10650314;27;20491;-84
2021/03/10 14:00:39;;;;;;;7.53;5.05;;;;;;;;;;10633439;27;20023;-81
2021/03/10 14:05:40;;;;;;;8.82;7.38;;;;;;;;;;10627711;27;20023;-82
2021/03/10 14:10:44;;;;;;;10.63;9.23;;;;;;;;;;10627020;27;20505;-87
2021/03/10 14:20:49;;;;;;;9.93;8.30;;;;;;;;;;10589182;22;20061;-86
2021/03/10 14:26:29;;;;;;;13.80;12.45;;;;;;;;;;10521010;28;20028;-84
2021/03/10 14:31:30;;;;;;;9.57;8.63;;;;;;;;;;10503604;28;20119;-84
2021/03/10 14:36:55;;;;;;;10.25;9.05;;;;;;;;;;10520663;28;20048;-84
2021/03/10 14:42:20;;;;;;;15.23;12.48;;;;;;;;;;10498564;28;20058;-84
2021/03/10 14:47:42;;;;;;;9.88;8.88;;;;;;;;;;10504320;28;20045;-83
2021/03/10 14:53:06;;;;;;;10.60;9.20;;;;;;;;;;10518141;28;20040;-85
2021/03/10 14:58:07;;;;;;;10.57;9.48;;;;;;;;;;10519874;28;20029;-82
2021/03/10 15:03:35;;;;;;;13.60;12.30;;;;;;;;;;10521282;28;20104;-88
2021/03/10 15:14:23;;;;;;;11.40;9.18;;;;;;;;;;10515097;28;20028;-86
2021/03/10 15:19:44;;;;;;;12.20;11.00;;;;;;;;;;10527131;28;20043;-86
2021/03/10 15:30:27;;;;;;;9.50;8.48;;;;;;;;;;10530113;28;20100;-86
2021/03/10 15:35:48;;;;;;;10.10;8.43;;;;;;;;;;10528697;28;20049;-85
2021/03/10 15:40:49;;;;;;;9.13;8.27;;;;;;;;;;10526739;28;20028;-85
2021/03/10 15:45:54;;;;;;;8.27;7.25;;;;;;;;;;10541949;28;20041;-85
2021/03/10 15:51:51;;;;;;;;;;;;;;;;;;;;;
2021/03/10 15:57:12;;;;;;;10.40;9.40;;;;;;;;;;10436747;28;20037;-84
2021/03/10 16:02:42;;;;;;;11.35;10.07;;;;;;;;;;10514068;28;20473;-84
2021/03/10 16:08:22;;;;;;;;;;;;;;;;;;;;;
2021/03/10 16:13:48;;;;;;;11.48;9.75;;;;;;;;;;10437501;28;20665;-82
2021/03/10 16:19:00;;;;;;;;;;;;;;;;;;10437445;28;20034;-82
2021/03/10 16:30:24;;;;;;;9.50;8.50;;;;;;;;;;10446505;28;20468;-84
2021/03/10 16:36:56;;;;;;;8.93;8.07;;;;;;;;;;10492640;28;20102;-85
2021/03/10 16:41:46;;;;;;;7.75;7.05;;;;;;;;;;10485728;28;20410;-83
2021/03/10 16:46:54;;;;;;;9.38;8.48;;;;;;;;;;10509595;28;20115;-84
2021/03/10 16:51:57;;;;;;;10.95;9.93;;;;;;;;;;10528624;28;20043;-84
2021/03/10 16:57:14;;;;;;;10.07;9.07;;;;;;;;;;10511781;28;20079;-84
2021/03/10 17:02:19;;;;;;;9.82;8.43;;;;;;;;;;10512199;28;20124;-84
2021/03/10 17:07:39;;;;;;;10.55;8.93;;;;;;;;;;10522155;28;20391;-84
2021/03/10 17:12:44;;;;;;;9.07;8.18;;;;;;;;;;10522559;28;20032;-84
2021/03/10 17:18:07;;;;;;;7.63;6.82;;;;;;;;;;10505575;28;20028;-84
2021/03/10 17:29:15;;;;;;;9.45;8.07;;;;;;;;;;10529934;28;20429;-87
2021/03/10 17:34:59;;;;;;;8.02;7.22;;;;;;;;;;10526299;28;20039;-86
2021/03/10 17:40:35;;;;;;;10.35;9.25;;;;;;;;;;10452593;28;20065;-84
2021/03/10 18:37:07;;;;;;;9.85;8.88;;;;;;;;;;10526249;28;20063;-85
2021/03/10 18:53:43;;;;;;;12.75;11.40;;;;;;;;;;10384306;28;20025;-86
2021/03/10 18:58:48;;;;;;;11.40;9.48;;;;;;;;;;10499119;28;20028;-85
2021/03/10 19:03:55;;;;;;;13.02;10.48;;;;;;;;;;10503952;28;20071;-86
2021/03/10 19:08:59;;;;;;;13.93;10.50;;;;;;;;;;10498884;28;20041;-85
2021/03/10 19:14:22;;;;;;;13.13;10.98;;;;;;;;;;10523959;28;20067;-85
2021/03/10 19:19:52;;;;;;;14.45;10.65;;;;;;;;;;10521611;28;20036;-87
2021/03/10 19:25:18;;;;;;;14.02;11.82;;;;;;;;;;10527727;28;20049;-85
2021/03/10 19:58:48;;;;;;;11.10;9.38;;;;;;;;;;10539665;28;20055;-86
2021/03/10 20:04:21;;;;;;;10.27;9.18;;;;;;;;;;10403543;28;20041;-86
2021/03/10 20:09:55;;;;;;;12.00;9.80;;;;;;;;;;10359358;28;20022;-84
2021/03/10 20:21:36;;;;;;;11.68;10.13;;;;;;;;;;10322062;28;20031;-84
2021/03/10 20:26:59;;;;;;;11.23;10.10;;;;;;;;;;10242317;29;20044;-85
2021/03/10 20:37:58;;;;;;;12.85;10.90;;;;;;;;;;10327497;28;20106;-84
2021/03/10 20:48:58;;;;;;;12.48;10.45;;;;;;;;;;10358777;28;20042;-84
2021/03/10 20:53:59;;;;;;;15.52;13.13;;;;;;;;;;10346611;28;20128;-86
2021/03/10 20:59:01;;;;;;;16.52;14.73;;;;;;;;;;10367761;28;20049;-86
2021/03/10 21:04:04;;;;;;;15.25;13.50;;;;;;;;;;10510396;28;20054;-86
2021/03/10 21:09:06;;;;;;;16.58;13.40;;;;;;;;;;10495974;28;20033;-85
2021/03/10 21:14:07;;;;;;;13.00;11.05;;;;;;;;;;10516015;28;20051;-86
2021/03/10 21:19:08;;;;;;;11.20;10.02;;;;;;;;;;10493611;28;20042;-87
